Time,TemperatureF,DewpointF,PressureIn,WindDirection,WindDirectionDegrees,WindSpeedMPH,WindSpeedGustMPH,Humidity,HourlyPrecipIn,Conditions,Clouds,dailyrainin,SoftwareType,DateUTC
2013-02-13 00:00:00,40.8,26.3,29.87,NE,42,0.0,0.0,56,0.00,OVC,,0.00,WeatherDisplay:10.37,2013-02-13 05:00:00,
2013-02-13 00:05:00,40.8,26.3,29.87,NE,42,0.0,0.0,56,0.00,OVC,,0.00,WeatherDisplay:10.37,2013-02-13 05:05:00,
2013-02-13 00:10:00,41.0,26.5,29.87,NE,42,0.0,0.0,56,0.00,OVC,,0.00,WeatherDisplay:10.37,2013-02-13 05:10:00,
2013-02-13 00:15:00,41.2,26.7,29.87,East,87,0.0,0.0,56,0.00,OVC,,0.00,WeatherDisplay:10.37,2013-02-13 05:15:00,
2013-02-13 00:20:00,41.2,26.7,29.87,ENE,65,0.0,0.0,56,0.00,OVC,,0.00,WeatherDisplay:10.37,2013-02-13 05:20:00,
2013-02-13 00:25:00,41.2,26.7,29.86,NNW,335,2.2,2.3,56,0.00,OVC,,0.00,WeatherDisplay:10.37,2013-02-13 05:25:00,
2013-02-13 00:30:00,41.2,26.7,29.86,NNE,19,0.0,0.0,56,0.00,OVC,,0.00,WeatherDisplay:10.37,2013-02-13 05:30:00,
2013-02-13 00:35:00,41.2,26.7,29.86,NE,42,1.3,1.3,56,0.00,OVC,,0.00,WeatherDisplay:10.37,2013-02-13 05:35:00,
2013-02-13 00:40:00,41.2,26.7,29.86,North,357,0.0,2.0,56,0.00,OVC,,0.00,WeatherDisplay:10.37,2013-02-13 05:40:00,
2013-02-13 00:45:00,41.2,26.7,29.86,NNE,19,3.9,4.6,56,0.00,OVC,,0.00,WeatherDisplay:10.37,2013-02-13 05:45:00,
2013-02-13 00:50:00,41.2,26.7,29.86,North,357,2.7,2.7,56,0.00,OVC,,0.00,WeatherDisplay:10.37,2013-02-13 05:50:00,
2013-02-13 00:55:00,41.2,26.7,29.85,NE,42,3.1,3.5,56,0.00,OVC,,0.00,WeatherDisplay:10.37,2013-02-13 05:55:00,
2013-02-13 01:00:00,41.2,26.7,29.85,North,357,2.9,3.5,56,0.00,OVC,,0.00,WeatherDisplay:10.37,2013-02-13 06:00:00,
2013-02-13 01:05:00,41.0,26.5,29.85,North,357,3.8,3.8,56,0.00,OVC,,0.00,WeatherDisplay:10.37,2013-02-13 06:05:00,
2013-02-13 01:10:00,41.0,26.5,29.85,NNE,19,4.1,4.6,56,0.00,OVC,,0.00,WeatherDisplay:10.37,2013-02-13 06:10:00,
2013-02-13 01:15:00,41.0,26.5,29.85,NNE,19,2.9,3.5,56,0.00,OVC,,0.00,WeatherDisplay:10.37,2013-02-13 06:15:00,
2013-02-13 01:20:00,41.0,26.5,29.85,North,357,2.7,3.5,56,0.00,OVC,,0.00,WeatherDisplay:10.37,2013-02-13 06:20:00,
2013-02-13 01:25:00,41.0,26.5,29.85,NE,42,2.7,3.5,56,0.00,OVC,,0.00,WeatherDisplay:10.37,2013-02-13 06:25:00,
2013-02-13 01:30:00,41.0,26.5,29.84,NE,42,0.0,0.0,56,0.00,OVC,,0.00,WeatherDisplay:10.37,2013-02-13 06:30:00,
2013-02-13 01:35:00,40.8,26.7,29.85,NNE,19,0.8,0.0,57,0.00,OVC,,0.00,WeatherDisplay:10.37,2013-02-13 06:35:00,
2013-02-13 01:40:00,40.8,26.7,29.85,ENE,65,0.0,0.0,57,0.00,OVC,,0.00,WeatherDisplay:10.37,2013-02-13 06:40:00,
2013-02-13 01:45:00,40.3,26.2,29.85,NE,42,0.0,0.0,57,0.00,OVC,,0.00,WeatherDisplay:10.37,2013-02-13 06:45:00,
2013-02-13 01:50:00,40.1,26.1,29.85,NE,42,0.0,0.0,57,0.00,OVC,,0.00,WeatherDisplay:10.37,2013-02-13 06:50:00,
2013-02-13 01:55:00,39.9,25.9,29.85,NNE,19,0.0,0.0,57,0.00,OVC,,0.00,WeatherDisplay:10.37,2013-02-13 06:55:00,
2013-02-13 02:00:00,39.9,25.9,29.85,NNE,19,2.6,3.5,57,0.00,OVC,,0.00,WeatherDisplay:10.37,2013-02-13 07:00:00,
2013-02-13 02:05:00,39.9,26.3,29.85,North,357,0.5,2.0,58,0.00,OVC,,0.00,WeatherDisplay:10.37,2013-02-13 07:05:00,
2013-02-13 02:10:00,39.9,26.3,29.84,NNE,19,1.0,3.5,58,0.00,OVC,,0.00,WeatherDisplay:10.37,2013-02-13 07:10:00,
2013-02-13 02:15:00,39.7,26.2,29.84,NNW,335,2.7,3.1,58,0.00,OVC,,0.00,WeatherDisplay:10.37,2013-02-13 07:15:00,
2013-02-13 02:20:00,39.6,26.0,29.84,NE,42,0.7,1.1,58,0.00,OVC,,0.00,WeatherDisplay:10.37,2013-02-13 07:20:00,
2013-02-13 02:25:00,39.6,26.4,29.84,NNE,19,0.0,0.0,59,0.00,OVC,,0.00,WeatherDisplay:10.37,2013-02-13 07:25:00,
2013-02-13 02:30:00,39.6,26.8,29.84,North,357,3.1,4.5,60,0.00,OVC,,0.00,WeatherDisplay:10.37,2013-02-13 07:30:00,
2013-02-13 02:35:00,39.4,26.6,29.84,North,357,4.3,4.6,60,0.00,OVC,,0.00,WeatherDisplay:10.37,2013-02-13 07:35:00,
2013-02-13 02:40:00,39.4,26.6,29.82,NNW,335,3.8,4.6,60,0.00,OVC,,0.00,WeatherDisplay:10.37,2013-02-13 07:40:00,
2013-02-13 02:45:00,39.0,26.3,29.82,NNW,335,6.9,6.9,60,0.00,OVC,,0.00,WeatherDisplay:10.37,2013-02-13 07:45:00,
2013-02-13 02:50:00,39.0,26.3,29.82,NNE,19,4.0,4.0,60,0.00,OVC,,0.00,WeatherDisplay:10.37,2013-02-13 07:50:00,
2013-02-13 02:55:00,39.0,26.3,29.82,North,357,0.7,3.5,60,0.00,OVC,,0.00,WeatherDisplay:10.37,2013-02-13 07:55:00,
2013-02-13 03:00:00,39.0,26.3,29.82,NNE,19,2.5,2.5,60,0.00,OVC,,0.00,WeatherDisplay:10.37,2013-02-13 08:00:00,
2013-02-13 03:05:00,39.0,26.3,29.82,NE,42,5.8,5.8,60,0.00,OVC,,0.00,WeatherDisplay:10.37,2013-02-13 08:05:00,
2013-02-13 03:10:00,39.0,26.3,29.82,NW,312,3.4,4.6,60,0.00,OVC,,0.00,WeatherDisplay:10.37,2013-02-13 08:10:00,
2013-02-13 03:15:00,39.0,26.3,29.81,NE,42,2.0,6.9,60,0.00,OVC,,0.00,WeatherDisplay:10.37,2013-02-13 08:15:00,
2013-02-13 03:20:00,39.4,26.6,29.81,North,357,6.2,6.9,60,0.00,OVC,,0.00,WeatherDisplay:10.37,2013-02-13 08:20:00,
2013-02-13 03:25:00,39.2,26.5,29.81,North,357,4.4,5.8,60,0.00,OVC,,0.00,WeatherDisplay:10.37,2013-02-13 08:25:00,
2013-02-13 03:30:00,39.2,26.5,29.80,NNE,19,3.1,3.5,60,0.00,OVC,,0.00,WeatherDisplay:10.37,2013-02-13 08:30:00,
2013-02-13 03:35:00,39.0,26.3,29.78,NNE,19,3.7,3.7,60,0.00,OVC,,0.00,WeatherDisplay:10.37,2013-02-13 08:35:00,
2013-02-13 03:40:00,39.0,26.7,29.78,NE,42,2.5,2.5,61,0.00,OVC,,0.00,WeatherDisplay:10.37,2013-02-13 08:40:00,
2013-02-13 03:45:00,39.0,26.7,29.79,NE,42,3.1,4.6,61,0.00,OVC,,0.00,WeatherDisplay:10.37,2013-02-13 08:45:00,
2013-02-13 03:50:00,39.0,26.7,29.79,North,357,4.7,4.7,61,0.00,OVC,,0.00,WeatherDisplay:10.37,2013-02-13 08:50:00,
2013-02-13 03:55:00,39.0,26.7,29.78,NE,42,5.6,6.9,61,0.00,OVC,,0.00,WeatherDisplay:10.37,2013-02-13 08:55:00,
2013-02-13 04:00:00,39.0,26.7,29.78,NNE,19,2.2,2.3,61,0.00,OVC,,0.00,WeatherDisplay:10.37,2013-02-13 09:00:00,
2013-02-13 04:05:00,39.0,27.1,29.79,NNE,19,0.0,0.0,62,0.00,OVC,,0.00,WeatherDisplay:10.37,2013-02-13 09:05:00,
2013-02-13 04:10:00,38.8,26.9,29.79,East,87,2.3,3.5,62,0.00,OVC,,0.00,WeatherDisplay:10.37,2013-02-13 09:10:00,
2013-02-13 04:15:00,38.8,26.9,29.79,NNE,19,4.0,4.0,62,0.00,OVC,,0.00,WeatherDisplay:10.37,2013-02-13 09:15:00,
2013-02-13 04:20:00,38.8,26.9,29.80,NE,42,0.5,2.3,62,0.00,OVC,,0.00,WeatherDisplay:10.37,2013-02-13 09:20:00,
2013-02-13 04:25:00,38.8,26.9,29.79,NE,42,0.0,0.0,62,0.00,OVC,,0.00,WeatherDisplay:10.37,2013-02-13 09:25:00,
2013-02-13 04:30:00,38.8,26.9,29.79,NE,42,0.4,1.6,62,0.00,OVC,,0.00,WeatherDisplay:10.37,2013-02-13 09:30:00,
2013-02-13 04:35:00,38.8,26.9,29.79,NNE,19,0.8,1.6,62,0.00,OVC,,0.00,WeatherDisplay:10.37,2013-02-13 09:35:00,
2013-02-13 04:40:00,38.8,27.3,29.78,NE,42,1.2,2.3,63,0.00,OVC,,0.00,WeatherDisplay:10.37,2013-02-13 09:40:00,
2013-02-13 04:45:00,38.8,27.3,29.78,North,357,2.7,3.5,63,0.00,OVC,,0.00,WeatherDisplay:10.37,2013-02-13 09:45:00,
2013-02-13 04:50:00,38.8,27.3,29.78,NNE,19,4.4,4.9,63,0.00,OVC,,0.00,WeatherDisplay:10.37,2013-02-13 09:50:00,
2013-02-13 04:55:00,38.8,27.3,29.78,East,87,1.1,1.1,63,0.00,OVC,,0.00,WeatherDisplay:10.37,2013-02-13 09:55:00,
2013-02-13 05:00:00,38.8,27.3,29.78,NE,42,2.5,2.5,63,0.00,OVC,,0.00,WeatherDisplay:10.37,2013-02-13 10:00:00,
2013-02-13 05:05:00,38.8,27.3,29.77,East,87,3.6,3.6,63,0.00,OVC,,0.00,WeatherDisplay:10.37,2013-02-13 10:05:00,
2013-02-13 05:10:00,38.8,27.3,29.77,NE,42,0.0,2.3,63,0.00,BKN,,0.00,WeatherDisplay:10.37,2013-02-13 10:10:00,
2013-02-13 05:15:00,38.8,27.3,29.77,NW,312,2.5,2.5,63,0.00,BKN,,0.00,WeatherDisplay:10.37,2013-02-13 10:15:00,
2013-02-13 05:20:00,38.8,27.3,29.77,North,357,4.3,4.6,63,0.00,BKN,,0.00,WeatherDisplay:10.37,2013-02-13 10:20:00,
2013-02-13 05:25:00,38.8,27.3,29.77,North,357,6.0,6.0,63,0.00,BKN,,0.00,WeatherDisplay:10.37,2013-02-13 10:25:00,
2013-02-13 05:30:00,38.8,27.3,29.77,NNE,19,3.1,3.5,63,0.00,BKN,,0.00,WeatherDisplay:10.37,2013-02-13 10:30:00,
2013-02-13 05:35:00,38.8,27.3,29.77,NE,42,4.3,4.5,63,0.00,BKN,,0.00,WeatherDisplay:10.37,2013-02-13 10:35:00,
2013-02-13 05:40:00,38.8,27.3,29.75,North,357,6.7,6.9,63,0.00,BKN,,0.00,WeatherDisplay:10.37,2013-02-13 10:40:00,
2013-02-13 05:45:00,38.8,27.3,29.75,North,357,8.0,9.6,63,0.00,BKN,,0.00,WeatherDisplay:10.37,2013-02-13 10:45:00,
2013-02-13 05:50:00,38.8,27.3,29.75,NNW,335,5.6,6.0,63,0.00,BKN,,0.00,WeatherDisplay:10.37,2013-02-13 10:50:00,
2013-02-13 05:55:00,38.8,27.3,29.75,NNE,19,6.9,6.9,63,0.00,BKN,,0.00,WeatherDisplay:10.37,2013-02-13 10:55:00,
2013-02-13 06:00:00,38.7,27.1,29.74,North,357,6.8,8.5,63,0.00,BKN,,0.00,WeatherDisplay:10.37,2013-02-13 11:00:00,
2013-02-13 06:05:00,38.5,27.0,29.75,NNW,335,5.9,7.6,63,0.00,BKN,,0.00,WeatherDisplay:10.37,2013-02-13 11:05:00,
2013-02-13 06:10:00,38.5,27.0,29.74,North,357,9.8,11.5,63,0.00,SCT,,0.00,WeatherDisplay:10.37,2013-02-13 11:10:00,
2013-02-13 06:15:00,38.5,27.0,29.74,North,357,9.8,10.7,63,0.00,SCT,,0.00,WeatherDisplay:10.37,2013-02-13 11:15:00,
2013-02-13 06:20:00,38.5,27.0,29.75,NW,312,8.6,9.2,63,0.00,SCT,,0.00,WeatherDisplay:10.37,2013-02-13 11:20:00,
2013-02-13 06:25:00,38.5,27.0,29.75,NNW,335,7.8,10.4,63,0.00,SCT,,0.00,WeatherDisplay:10.37,2013-02-13 11:25:00,
2013-02-13 06:30:00,38.5,27.0,29.75,NNW,335,9.9,12.1,63,0.00,SCT,,0.00,WeatherDisplay:10.37,2013-02-13 11:30:00,
2013-02-13 06:35:00,38.5,27.0,29.75,NNW,335,6.9,8.5,63,0.00,SCT,,0.00,WeatherDisplay:10.37,2013-02-13 11:35:00,
2013-02-13 06:40:00,38.5,27.0,29.76,ESE,109,2.9,3.5,63,0.00,SCT,,0.00,WeatherDisplay:10.37,2013-02-13 11:40:00,
2013-02-13 06:45:00,38.5,27.4,29.77,East,87,0.0,0.0,64,0.00,SCT,,0.00,WeatherDisplay:10.37,2013-02-13 11:45:00,
2013-02-13 06:50:00,38.3,27.2,29.77,ESE,109,3.9,4.5,64,0.00,SCT,,0.00,WeatherDisplay:10.37,2013-02-13 11:50:00,
2013-02-13 06:55:00,38.3,27.2,29.77,NNW,335,2.5,2.5,64,0.00,SCT,,0.00,WeatherDisplay:10.37,2013-02-13 11:55:00,
2013-02-13 07:00:00,38.1,27.0,29.78,NNE,19,5.8,6.9,64,0.00,SCT,,0.00,WeatherDisplay:10.37,2013-02-13 12:00:00,
2013-02-13 07:05:00,38.1,27.4,29.77,NW,312,4.5,4.6,65,0.00,SCT,,0.00,WeatherDisplay:10.37,2013-02-13 12:05:00,
2013-02-13 07:10:00,37.9,27.2,29.78,NNW,335,8.0,8.1,65,0.00,-SN,,0.00,WeatherDisplay:10.37,2013-02-13 12:10:00,
2013-02-13 07:15:00,37.8,27.4,29.78,NNW,335,8.4,12.7,66,0.00,-SN,,0.00,WeatherDisplay:10.37,2013-02-13 12:15:00,
2013-02-13 07:20:00,37.6,27.2,29.78,NNW,335,5.2,5.2,66,0.00,-SN,,0.00,WeatherDisplay:10.37,2013-02-13 12:20:00,
2013-02-13 07:25:00,37.4,27.1,29.79,NNW,335,4.5,6.9,66,0.00,-SN,,0.00,WeatherDisplay:10.37,2013-02-13 12:25:00,
2013-02-13 07:30:00,37.2,26.9,29.79,NE,42,3.8,3.8,66,0.00,-SN,,0.00,WeatherDisplay:10.37,2013-02-13 12:30:00,
2013-02-13 07:35:00,37.2,27.3,29.79,NNW,335,4.7,4.7,67,0.00,-SN,,0.00,WeatherDisplay:10.37,2013-02-13 12:35:00,
2013-02-13 07:40:00,37.2,27.3,29.79,North,357,0.0,1.1,67,0.00,-SN,,0.00,WeatherDisplay:10.37,2013-02-13 12:40:00,
2013-02-13 07:45:00,37.0,27.1,29.80,NNW,335,8.8,9.2,67,0.00,-SN,,0.00,WeatherDisplay:10.37,2013-02-13 12:45:00,
2013-02-13 07:50:00,37.0,27.1,29.80,North,357,3.8,4.0,67,0.00,-SN,,0.00,WeatherDisplay:10.37,2013-02-13 12:50:00,
2013-02-13 07:55:00,36.9,27.3,29.80,NNE,19,1.3,1.3,68,0.00,-SN,,0.00,WeatherDisplay:10.37,2013-02-13 12:55:00,
2013-02-13 08:00:00,36.9,27.3,29.81,NNE,19,2.9,3.5,68,0.00,-SN,,0.00,WeatherDisplay:10.37,2013-02-13 13:00:00,
2013-02-13 08:05:00,36.7,27.1,29.80,NE,42,3.1,3.5,68,0.00,-SN,,0.00,WeatherDisplay:10.37,2013-02-13 13:05:00,
2013-02-13 08:10:00,36.7,27.5,29.80,NE,42,0.0,3.5,69,0.00,-SN,,0.00,WeatherDisplay:10.37,2013-02-13 13:10:00,
2013-02-13 08:15:00,36.7,27.5,29.81,NNW,335,2.9,3.5,69,0.00,-SN,,0.00,WeatherDisplay:10.37,2013-02-13 13:15:00,
2013-02-13 08:20:00,36.5,27.3,29.80,NNE,19,2.5,5.1,69,0.00,-SN,,0.00,WeatherDisplay:10.37,2013-02-13 13:20:00,
2013-02-13 08:25:00,36.5,27.6,29.80,NE,42,3.8,9.2,70,0.00,-SN,,0.00,WeatherDisplay:10.37,2013-02-13 13:25:00,
2013-02-13 08:30:00,36.5,27.6,29.80,North,357,4.2,4.6,70,0.00,-SN,,0.00,WeatherDisplay:10.37,2013-02-13 13:30:00,
2013-02-13 08:35:00,36.3,27.5,29.80,North,357,2.4,4.6,70,0.00,-SN,,0.00,WeatherDisplay:10.37,2013-02-13 13:35:00,
2013-02-13 08:40:00,36.3,27.5,29.80,NNW,335,5.0,5.0,70,0.00,-SN,,0.00,WeatherDisplay:10.37,2013-02-13 13:40:00,
2013-02-13 08:45:00,36.1,27.3,29.79,NNW,335,4.7,7.4,70,0.00,-SN,,0.00,WeatherDisplay:10.37,2013-02-13 13:45:00,
2013-02-13 08:50:00,36.1,27.6,29.80,ENE,65,3.2,3.5,71,0.00,-SN,,0.00,WeatherDisplay:10.37,2013-02-13 13:50:00,
2013-02-13 08:55:00,36.1,27.6,29.80,NE,42,3.0,3.5,71,0.00,-SN,,0.00,WeatherDisplay:10.37,2013-02-13 13:55:00,
2013-02-13 09:00:00,36.1,27.6,29.80,North,357,2.7,2.7,71,0.00,-SN,,0.00,WeatherDisplay:10.37,2013-02-13 14:00:00,
2013-02-13 09:05:00,36.1,28.0,29.79,ENE,65,1.6,3.5,72,0.00,-SN,,0.00,WeatherDisplay:10.37,2013-02-13 14:05:00,
2013-02-13 09:10:00,36.1,28.0,29.80,NNW,335,2.0,3.5,72,0.00,-SN,,0.00,WeatherDisplay:10.37,2013-02-13 14:10:00,
2013-02-13 09:15:00,36.3,28.2,29.79,NE,42,2.2,2.3,72,0.00,-SN,,0.00,WeatherDisplay:10.37,2013-02-13 14:15:00,
2013-02-13 09:20:00,36.3,28.2,29.79,North,357,5.0,6.9,72,0.00,-SN,,0.00,WeatherDisplay:10.37,2013-02-13 14:20:00,
2013-02-13 09:25:00,36.5,28.3,29.80,NE,42,6.9,6.9,72,0.00,-SN,,0.00,WeatherDisplay:10.37,2013-02-13 14:25:00,
2013-02-13 09:30:00,36.7,28.5,29.80,North,357,10.3,10.5,72,0.00,-SN,,0.00,WeatherDisplay:10.37,2013-02-13 14:30:00,
2013-02-13 09:35:00,36.7,28.5,29.80,North,357,7.8,8.1,72,0.00,-SN,,0.00,WeatherDisplay:10.37,2013-02-13 14:35:00,
2013-02-13 09:40:00,36.7,28.5,29.81,NNW,335,9.1,9.2,72,0.00,-SN,,0.00,WeatherDisplay:10.37,2013-02-13 14:40:00,
2013-02-13 09:45:00,36.3,28.2,29.81,NNW,335,8.3,8.3,72,0.00,-SN,,0.00,WeatherDisplay:10.37,2013-02-13 14:45:00,
2013-02-13 09:50:00,36.1,28.0,29.81,NNW,335,15.0,15.0,72,0.00,-SN,,0.00,WeatherDisplay:10.37,2013-02-13 14:50:00,
2013-02-13 09:55:00,35.8,28.0,29.82,NW,312,5.3,5.8,73,0.00,-SN,,0.00,WeatherDisplay:10.37,2013-02-13 14:55:00,
2013-02-13 10:00:00,35.8,28.0,29.82,North,357,8.2,9.2,73,0.00,-SN,,0.00,WeatherDisplay:10.37,2013-02-13 15:00:00,
2013-02-13 10:05:00,35.6,28.1,29.82,North,357,7.6,11.6,74,0.00,-SN,,0.00,WeatherDisplay:10.37,2013-02-13 15:05:00,
2013-02-13 10:10:00,35.4,28.0,29.82,NNW,335,8.3,8.3,74,0.00,-SN,,0.00,WeatherDisplay:10.37,2013-02-13 15:10:00,
2013-02-13 10:15:00,35.2,27.8,29.82,NW,312,2.0,2.3,74,0.00,-SN,,0.00,WeatherDisplay:10.37,2013-02-13 15:15:00,
2013-02-13 10:20:00,35.2,28.1,29.82,NW,312,5.8,5.8,75,0.00,-SN,,0.00,WeatherDisplay:10.37,2013-02-13 15:20:00,
2013-02-13 10:25:00,34.9,27.8,29.82,NNW,335,6.3,8.1,75,0.00,-SN,,0.00,WeatherDisplay:10.37,2013-02-13 15:25:00,
2013-02-13 10:30:00,34.9,27.8,29.82,NNW,335,7.3,8.1,75,0.00,-SN,,0.00,WeatherDisplay:10.37,2013-02-13 15:30:00,
2013-02-13 10:35:00,34.7,27.9,29.82,NNW,331,5.0,0.0,76,0.00,-SN,,0.00,WeatherDisplay:10.37,2013-02-13 15:35:00,
2013-02-13 10:40:00,34.5,27.7,29.82,NNW,335,5.6,5.8,76,0.00,-SN,,0.00,WeatherDisplay:10.37,2013-02-13 15:40:00,
2013-02-13 10:45:00,34.3,27.6,29.82,NW,312,7.3,11.5,76,0.00,-SN,,0.00,WeatherDisplay:10.37,2013-02-13 15:45:00,
2013-02-13 10:50:00,34.3,27.9,29.82,NNW,335,6.5,6.9,77,0.00,-SN,,0.00,WeatherDisplay:10.37,2013-02-13 15:50:00,
2013-02-13 10:55:00,34.3,27.9,29.82,NW,312,4.5,4.6,77,0.00,-SN,,0.00,WeatherDisplay:10.37,2013-02-13 15:55:00,
2013-02-13 11:00:00,34.0,27.5,29.82,NNW,335,7.7,10.7,77,0.00,-SN,,0.00,WeatherDisplay:10.37,2013-02-13 16:00:00,
2013-02-13 11:05:00,33.8,27.7,29.83,North,357,5.6,5.8,78,0.00,-SN,,0.00,WeatherDisplay:10.37,2013-02-13 16:05:00,
2013-02-13 11:10:00,33.4,27.6,29.82,North,357,14.5,15.0,79,0.00,-SN,,0.00,WeatherDisplay:10.37,2013-02-13 16:10:00,
2013-02-13 11:15:00,33.1,27.3,29.83,NE,42,3.7,3.8,79,0.00,-SN,,0.00,WeatherDisplay:10.37,2013-02-13 16:15:00,
2013-02-13 11:20:00,32.9,27.1,29.83,NE,42,2.0,6.9,79,0.00,-SN,,0.00,WeatherDisplay:10.37,2013-02-13 16:20:00,
2013-02-13 11:25:00,32.9,27.1,29.84,NNW,335,8.0,8.1,79,0.00,-SN,,0.00,WeatherDisplay:10.37,2013-02-13 16:25:00,
2013-02-13 11:30:00,32.9,27.4,29.84,NNW,335,7.7,8.1,80,0.00,-SN,,0.00,WeatherDisplay:10.37,2013-02-13 16:30:00,
2013-02-13 11:35:00,32.9,27.4,29.84,NNW,335,6.9,6.9,80,0.00,-SN,,0.00,WeatherDisplay:10.37,2013-02-13 16:35:00,
2013-02-13 11:40:00,32.9,27.4,29.84,NNW,335,3.8,6.9,80,0.00,-SN,,0.00,WeatherDisplay:10.37,2013-02-13 16:40:00,
2013-02-13 11:45:00,33.1,27.9,29.84,NW,312,2.4,2.5,81,0.00,-SN,,0.00,WeatherDisplay:10.37,2013-02-13 16:45:00,
2013-02-13 11:50:00,33.1,27.9,29.84,NNW,335,2.7,6.9,81,0.00,-SN,,0.00,WeatherDisplay:10.37,2013-02-13 16:50:00,
2013-02-13 11:55:00,33.3,28.1,29.84,WNW,289,3.8,3.8,81,0.00,-SN,,0.00,WeatherDisplay:10.37,2013-02-13 16:55:00,
2013-02-13 12:00:00,33.6,28.4,29.84,NNW,335,6.2,6.9,81,0.00,-SN,,0.00,WeatherDisplay:10.37,2013-02-13 17:00:00,
2013-02-13 12:05:00,33.4,28.2,29.84,NW,312,6.7,9.2,81,0.00,-SN,,0.00,WeatherDisplay:10.37,2013-02-13 17:05:00,
2013-02-13 12:10:00,33.6,28.4,29.84,NW,312,2.9,6.9,81,0.00,-SN,,0.00,WeatherDisplay:10.37,2013-02-13 17:10:00,
2013-02-13 12:15:00,33.6,28.4,29.83,NW,312,10.1,10.4,81,0.00,-SN,,0.00,WeatherDisplay:10.37,2013-02-13 17:15:00,
2013-02-13 12:20:00,33.6,28.4,29.83,NW,312,6.0,6.0,81,0.00,-SN,,0.00,WeatherDisplay:10.37,2013-02-13 17:20:00,
2013-02-13 12:25:00,33.8,28.6,29.84,NNW,335,3.1,5.8,81,0.00,-SN,,0.00,WeatherDisplay:10.37,2013-02-13 17:25:00,
2013-02-13 12:30:00,34.2,28.9,29.84,NNW,335,3.1,3.5,81,0.00,-SN,,0.00,WeatherDisplay:10.37,2013-02-13 17:30:00,
2013-02-13 12:35:00,34.3,29.1,29.84,North,357,3.1,3.5,81,0.02,-SN,,0.02,WeatherDisplay:10.37,2013-02-13 17:35:00,
2013-02-13 12:40:00,34.7,29.5,29.84,NW,312,2.5,3.5,81,0.02,-SN,,0.02,WeatherDisplay:10.37,2013-02-13 17:40:00,
2013-02-13 12:45:00,35.2,29.7,29.84,West,267,7.6,9.2,80,0.02,-SN,,0.02,WeatherDisplay:10.37,2013-02-13 17:45:00,
2013-02-13 12:50:00,35.4,29.9,29.84,NNW,335,6.2,6.9,80,0.02,-SN,,0.02,WeatherDisplay:10.37,2013-02-13 17:50:00,
2013-02-13 12:55:00,35.4,29.9,29.85,NW,312,6.5,9.2,80,0.02,-SN,,0.02,WeatherDisplay:10.37,2013-02-13 17:55:00,
2013-02-13 13:00:00,35.4,29.9,29.84,NNE,19,5.2,5.8,80,0.02,-SN,,0.02,WeatherDisplay:10.37,2013-02-13 18:00:00,
2013-02-13 13:05:00,35.4,29.9,29.84,NW,312,2.2,4.6,80,0.02,-SN,,0.02,WeatherDisplay:10.37,2013-02-13 18:05:00,
2013-02-13 13:10:00,35.4,29.9,29.85,West,267,3.1,3.5,80,0.02,-SN,,0.02,WeatherDisplay:10.37,2013-02-13 18:10:00,
2013-02-13 13:15:00,35.4,29.9,29.84,NW,312,4.0,5.8,80,0.02,-SN,,0.02,WeatherDisplay:10.37,2013-02-13 18:15:00,
2013-02-13 13:20:00,35.4,29.9,29.84,NNW,335,2.7,4.6,80,0.02,-SN,,0.02,WeatherDisplay:10.37,2013-02-13 18:20:00,
2013-02-13 13:25:00,35.8,30.2,29.84,NW,312,6.3,6.3,80,0.02,-SN,,0.02,WeatherDisplay:10.37,2013-02-13 18:25:00,
2013-02-13 13:30:00,36.3,30.7,29.84,NE,42,3.6,6.9,80,0.02,-SN,,0.02,WeatherDisplay:10.37,2013-02-13 18:30:00,
2013-02-13 13:35:00,36.3,30.7,29.84,NNW,335,10.9,11.5,80,0.00,-SN,,0.02,WeatherDisplay:10.37,2013-02-13 18:35:00,
2013-02-13 13:41:00,36.1,30.6,29.84,NNW,332,2.0,0.0,80,0.00,-SN,,0.02,WeatherDisplay:10.37,2013-02-13 18:41:00,
2013-02-13 13:46:00,36.5,30.9,29.84,WSW,245,2.5,4.6,80,0.00,-SN,,0.02,WeatherDisplay:10.37,2013-02-13 18:46:00,
2013-02-13 13:51:00,36.7,31.1,29.84,WNW,290,3.0,0.0,80,0.00,-SN,,0.02,WeatherDisplay:10.37,2013-02-13 18:51:00,
2013-02-13 13:56:00,36.9,31.3,29.84,West,267,3.9,3.9,80,0.00,-SN,,0.02,WeatherDisplay:10.37,2013-02-13 18:56:00,
2013-02-13 14:01:00,37.0,31.4,29.84,NW,312,2.0,3.5,80,0.00,-SN,,0.02,WeatherDisplay:10.37,2013-02-13 19:01:00,
2013-02-13 14:06:00,37.2,31.6,29.84,North,357,1.8,2.3,80,0.00,-SN,,0.02,WeatherDisplay:10.37,2013-02-13 19:06:00,
2013-02-13 14:11:00,37.2,31.3,29.83,NW,318,0.0,0.0,79,0.00,-SN,,0.02,WeatherDisplay:10.37,2013-02-13 19:11:00,
2013-02-13 14:16:00,37.8,31.5,29.83,WNW,289,3.8,4.6,78,0.00,-SN,,0.02,WeatherDisplay:10.37,2013-02-13 19:16:00,
2013-02-13 14:21:00,38.1,32.2,29.83,North,357,2.5,3.5,79,0.00,-SN,,0.02,WeatherDisplay:10.37,2013-02-13 19:21:00,
2013-02-13 14:26:00,38.8,32.9,29.83,WNW,289,5.8,5.8,79,0.00,-SN,,0.02,WeatherDisplay:10.37,2013-02-13 19:26:00,
2013-02-13 14:31:00,39.2,32.9,29.83,SW,222,3.8,4.6,78,0.00,-SN,,0.02,WeatherDisplay:10.37,2013-02-13 19:31:00,
2013-02-13 14:36:00,39.6,33.3,29.83,NNW,335,0.0,0.0,78,0.00,-SN,,0.02,WeatherDisplay:10.37,2013-02-13 19:36:00,
2013-02-13 14:41:00,39.9,33.3,29.83,West,271,1.0,0.0,77,0.00,-SN,,0.02,WeatherDisplay:10.37,2013-02-13 19:41:00,
2013-02-13 14:46:00,40.8,34.2,29.83,West,267,0.0,0.0,77,0.00,-SN,,0.02,WeatherDisplay:10.37,2013-02-13 19:46:00,
2013-02-13 14:51:00,40.8,33.8,29.82,WSW,256,1.0,0.0,76,0.00,-SN,,0.02,WeatherDisplay:10.37,2013-02-13 19:51:00,
2013-02-13 14:56:00,40.8,33.5,29.82,WNW,289,5.1,5.1,75,0.00,-SN,,0.02,WeatherDisplay:10.37,2013-02-13 19:56:00,
2013-02-13 15:01:00,40.8,33.2,29.82,West,267,2.2,3.4,74,0.00,-SN,,0.02,WeatherDisplay:10.37,2013-02-13 20:01:00,
2013-02-13 15:06:00,41.0,33.3,29.82,SW,222,3.1,3.5,74,0.00,-SN,,0.02,WeatherDisplay:10.37,2013-02-13 20:06:00,
2013-02-13 15:11:00,41.7,34.4,29.82,West,267,1.6,1.6,75,0.00,BKN,,0.02,WeatherDisplay:10.37,2013-02-13 20:11:00,
2013-02-13 15:16:00,42.4,35.1,29.82,West,267,4.0,5.8,75,0.00,BKN,,0.02,WeatherDisplay:10.37,2013-02-13 20:16:00,
2013-02-13 15:21:00,42.6,34.6,29.82,SW,222,5.8,5.8,73,0.00,BKN,,0.02,WeatherDisplay:10.37,2013-02-13 20:21:00,
2013-02-13 15:26:00,42.6,34.2,29.82,West,267,3.4,5.1,72,0.00,BKN,,0.02,WeatherDisplay:10.37,2013-02-13 20:26:00,
2013-02-13 15:31:00,42.4,34.0,29.82,West,267,1.8,2.3,72,0.00,BKN,,0.02,WeatherDisplay:10.37,2013-02-13 20:31:00,
2013-02-13 15:36:00,42.1,33.7,29.82,West,267,2.8,3.5,72,0.00,BKN,,0.02,WeatherDisplay:10.37,2013-02-13 20:36:00,
2013-02-13 15:41:00,42.4,34.4,29.82,WSW,245,1.6,2.3,73,0.00,BKN,,0.02,WeatherDisplay:10.37,2013-02-13 20:41:00,
2013-02-13 15:46:00,42.6,34.6,29.83,West,267,2.9,3.5,73,0.00,BKN,,0.02,WeatherDisplay:10.37,2013-02-13 20:46:00,
2013-02-13 15:51:00,42.6,33.9,29.84,West,271,5.0,0.0,71,0.00,BKN,,0.02,WeatherDisplay:10.37,2013-02-13 20:51:00,
2013-02-13 15:56:00,42.1,33.4,29.84,West,267,2.8,7.6,71,0.00,BKN,,0.02,WeatherDisplay:10.37,2013-02-13 20:56:00,
2013-02-13 16:01:00,41.7,33.0,29.85,WSW,245,4.4,5.1,71,0.00,BKN,,0.02,WeatherDisplay:10.37,2013-02-13 21:01:00,
2013-02-13 16:06:00,41.7,33.0,29.84,NW,312,6.3,6.3,71,0.00,BKN,,0.02,WeatherDisplay:10.37,2013-02-13 21:06:00,
2013-02-13 16:11:00,41.7,33.0,29.84,West,261,9.0,0.0,71,0.00,BKN,,0.02,WeatherDisplay:10.37,2013-02-13 21:11:00,
2013-02-13 16:16:00,41.5,32.5,29.84,West,267,8.6,9.2,70,0.00,BKN,,0.02,WeatherDisplay:10.37,2013-02-13 21:16:00,
2013-02-13 16:21:00,41.2,32.1,29.85,NW,312,6.5,6.9,70,0.00,BKN,,0.02,WeatherDisplay:10.37,2013-02-13 21:21:00,
2013-02-13 16:26:00,41.2,32.5,29.85,WNW,289,6.5,6.9,71,0.00,BKN,,0.02,WeatherDisplay:10.37,2013-02-13 21:26:00,
2013-02-13 16:31:00,41.0,32.3,29.85,WNW,289,3.0,3.5,71,0.00,BKN,,0.02,WeatherDisplay:10.37,2013-02-13 21:31:00,
2013-02-13 16:36:00,41.0,32.0,29.85,NNW,335,4.5,4.6,70,0.00,BKN,,0.02,WeatherDisplay:10.37,2013-02-13 21:36:00,
2013-02-13 16:41:00,40.8,31.8,29.85,West,278,6.0,0.0,70,0.00,BKN,,0.02,WeatherDisplay:10.37,2013-02-13 21:41:00,
2013-02-13 16:46:00,40.6,31.6,29.85,West,267,3.9,4.6,70,0.00,BKN,,0.02,WeatherDisplay:10.37,2013-02-13 21:46:00,
2013-02-13 16:51:00,40.6,31.6,29.86,West,267,7.4,7.4,70,0.00,BKN,,0.02,WeatherDisplay:10.37,2013-02-13 21:51:00,
2013-02-13 16:56:00,40.8,31.8,29.86,NW,312,2.8,5.8,70,0.00,BKN,,0.02,WeatherDisplay:10.37,2013-02-13 21:56:00,
2013-02-13 17:01:00,40.6,31.6,29.86,NW,312,7.0,9.2,70,0.00,BKN,,0.02,WeatherDisplay:10.37,2013-02-13 22:01:00,
2013-02-13 17:06:00,40.3,31.3,29.86,WNW,289,3.4,3.5,70,0.00,BKN,,0.02,WeatherDisplay:10.37,2013-02-13 22:06:00,
2013-02-13 17:11:00,40.3,31.3,29.86,WNW,289,3.2,3.5,70,0.00,BKN,,0.02,WeatherDisplay:10.37,2013-02-13 22:11:00,
2013-02-13 17:16:00,40.5,31.4,29.85,NNW,335,5.9,6.9,70,0.00,BKN,,0.02,WeatherDisplay:10.37,2013-02-13 22:16:00,
2013-02-13 17:21:00,40.3,31.3,29.86,WNW,290,2.0,0.0,70,0.00,BKN,,0.02,WeatherDisplay:10.37,2013-02-13 22:21:00,
2013-02-13 17:26:00,40.3,31.3,29.86,West,267,6.2,6.2,70,0.00,BKN,,0.02,WeatherDisplay:10.37,2013-02-13 22:26:00,
2013-02-13 17:31:00,40.3,31.3,29.87,WSW,245,3.1,3.5,70,0.00,BKN,,0.02,WeatherDisplay:10.37,2013-02-13 22:31:00,
2013-02-13 17:36:00,39.9,31.3,29.87,West,267,2.5,2.5,71,0.00,BKN,,0.02,WeatherDisplay:10.37,2013-02-13 22:36:00,
2013-02-13 17:41:00,39.7,31.1,29.87,West,266,0.0,0.0,71,0.00,BKN,,0.02,WeatherDisplay:10.37,2013-02-13 22:41:00,
2013-02-13 17:46:00,39.7,31.4,29.87,WSW,245,2.4,2.5,72,0.00,BKN,,0.02,WeatherDisplay:10.37,2013-02-13 22:46:00,
2013-02-13 17:51:00,39.6,31.3,29.88,WSW,250,6.0,0.0,72,0.00,BKN,,0.02,WeatherDisplay:10.37,2013-02-13 22:51:00,
2013-02-13 17:56:00,39.4,31.1,29.88,West,267,2.9,3.5,72,0.00,BKN,,0.02,WeatherDisplay:10.37,2013-02-13 22:56:00,
2013-02-13 18:01:00,39.4,31.1,29.88,West,267,0.7,2.3,72,0.00,BKN,,0.02,WeatherDisplay:10.37,2013-02-13 23:01:00,
2013-02-13 18:06:00,39.2,30.9,29.88,SW,222,4.8,4.8,72,0.00,BKN,,0.02,WeatherDisplay:10.37,2013-02-13 23:06:00,
2013-02-13 18:11:00,39.0,30.7,29.88,WSW,240,2.0,0.0,72,0.00,BKN,,0.02,WeatherDisplay:10.37,2013-02-13 23:11:00,
2013-02-13 18:16:00,38.8,30.2,29.88,West,267,0.0,1.1,71,0.00,BKN,,0.02,WeatherDisplay:10.37,2013-02-13 23:16:00,
2013-02-13 18:21:00,38.5,29.9,29.88,West,262,2.0,0.0,71,0.00,BKN,,0.02,WeatherDisplay:10.37,2013-02-13 23:21:00,
2013-02-13 18:26:00,38.3,30.1,29.88,West,267,1.8,2.3,72,0.00,BKN,,0.02,WeatherDisplay:10.37,2013-02-13 23:26:00,
2013-02-13 18:31:00,38.1,29.9,29.88,West,261,0.0,0.0,72,0.00,BKN,,0.02,WeatherDisplay:10.37,2013-02-13 23:31:00,
2013-02-13 18:36:00,37.9,29.7,29.88,West,267,1.3,1.3,72,0.00,BKN,,0.02,WeatherDisplay:10.37,2013-02-13 23:36:00,
2013-02-13 18:41:00,37.8,29.5,29.88,WSW,251,0.0,0.0,72,0.00,BKN,,0.02,WeatherDisplay:10.37,2013-02-13 23:41:00,
2013-02-13 18:46:00,37.4,29.2,29.89,West,267,0.4,2.3,72,0.00,BKN,,0.02,WeatherDisplay:10.37,2013-02-13 23:46:00,
2013-02-13 18:51:00,37.2,29.4,29.89,West,261,1.0,0.0,73,0.00,BKN,,0.02,WeatherDisplay:10.37,2013-02-13 23:51:00,
2013-02-13 18:56:00,36.7,28.8,29.89,WSW,245,2.5,3.5,73,0.00,BKN,,0.02,WeatherDisplay:10.37,2013-02-13 23:56:00,
2013-02-13 19:01:00,36.5,28.7,29.89,West,267,0.0,0.0,73,0.00,BKN,,0.02,WeatherDisplay:10.37,2013-02-14 00:01:00,
2013-02-13 19:06:00,36.3,28.8,29.89,WSW,245,0.0,0.0,74,0.00,BKN,,0.02,WeatherDisplay:10.37,2013-02-14 00:06:00,
2013-02-13 19:11:00,36.3,28.8,29.90,WSW,240,1.0,0.0,74,0.00,SCT,,0.02,WeatherDisplay:10.37,2013-02-14 00:11:00,
2013-02-13 19:16:00,36.3,28.8,29.90,WSW,245,2.2,3.5,74,0.00,SCT,,0.02,WeatherDisplay:10.37,2013-02-14 00:16:00,
2013-02-13 19:21:00,36.3,28.8,29.90,WSW,240,3.0,0.0,74,0.00,SCT,,0.02,WeatherDisplay:10.37,2013-02-14 00:21:00,
2013-02-13 19:26:00,36.3,28.8,29.91,West,267,6.0,6.0,74,0.00,SCT,,0.02,WeatherDisplay:10.37,2013-02-14 00:26:00,
2013-02-13 19:31:00,36.3,28.8,29.91,WSW,251,2.0,0.0,74,0.00,SCT,,0.02,WeatherDisplay:10.37,2013-02-14 00:31:00,
2013-02-13 19:36:00,36.1,28.6,29.91,SW,222,2.9,3.5,74,0.00,SCT,,0.02,WeatherDisplay:10.37,2013-02-14 00:36:00,
2013-02-13 19:41:00,36.1,28.6,29.91,SW,233,2.0,0.0,74,0.00,SCT,,0.02,WeatherDisplay:10.37,2013-02-14 00:41:00,
2013-02-13 19:46:00,35.8,28.3,29.91,WSW,245,2.0,2.3,74,0.00,SCT,,0.02,WeatherDisplay:10.37,2013-02-14 00:46:00,
2013-02-13 19:51:00,35.4,28.0,29.91,WSW,245,1.6,1.6,74,0.00,SCT,,0.02,WeatherDisplay:10.37,2013-02-14 00:51:00,
2013-02-13 19:56:00,35.4,28.0,29.91,West,267,0.9,3.5,74,0.00,SCT,,0.02,WeatherDisplay:10.37,2013-02-14 00:56:00,
2013-02-13 20:01:00,35.2,28.1,29.92,WSW,256,1.0,0.0,75,0.00,SCT,,0.02,WeatherDisplay:10.37,2013-02-14 01:01:00,
2013-02-13 20:06:00,34.9,27.8,29.91,West,267,3.1,3.5,75,0.00,SCT,,0.02,WeatherDisplay:10.37,2013-02-14 01:06:00,
2013-02-13 20:11:00,34.3,27.2,29.92,WSW,245,1.9,2.3,75,0.00,SCT,,0.02,WeatherDisplay:10.37,2013-02-14 01:11:00,
2013-02-13 20:16:00,34.3,27.2,29.92,West,267,0.0,0.0,75,0.00,SCT,,0.02,WeatherDisplay:10.37,2013-02-14 01:16:00,
2013-02-13 20:21:00,34.3,27.2,29.92,WSW,245,1.3,1.3,75,0.00,SCT,,0.02,WeatherDisplay:10.37,2013-02-14 01:21:00,
2013-02-13 20:26:00,34.0,27.2,29.92,West,267,0.0,0.0,76,0.00,SCT,,0.02,WeatherDisplay:10.37,2013-02-14 01:26:00,
2013-02-13 20:31:00,34.0,27.2,29.92,SSW,199,0.0,0.0,76,0.00,SCT,,0.02,WeatherDisplay:10.37,2013-02-14 01:31:00,
2013-02-13 20:36:00,33.6,26.9,29.92,WSW,245,0.0,0.0,76,0.00,SCT,,0.02,WeatherDisplay:10.37,2013-02-14 01:36:00,
2013-02-13 20:41:00,33.4,26.7,29.92,SSE,155,0.0,0.0,76,0.00,SCT,,0.02,WeatherDisplay:10.37,2013-02-14 01:41:00,
2013-02-13 20:46:00,33.1,26.3,29.93,South,177,0.0,0.0,76,0.00,SCT,,0.02,WeatherDisplay:10.37,2013-02-14 01:46:00,
2013-02-13 20:51:00,32.9,26.2,29.93,WSW,245,0.0,0.0,76,0.00,SCT,,0.02,WeatherDisplay:10.37,2013-02-14 01:51:00,
2013-02-13 20:56:00,32.7,26.3,29.93,SSW,199,0.0,0.0,77,0.00,SCT,,0.02,WeatherDisplay:10.37,2013-02-14 01:56:00,
2013-02-13 21:01:00,32.5,26.1,29.93,SSW,199,0.0,0.0,77,0.00,SCT,,0.02,WeatherDisplay:10.37,2013-02-14 02:01:00,
2013-02-13 21:06:00,32.2,25.8,29.93,SSW,199,0.0,0.0,77,0.00,SCT,,0.02,WeatherDisplay:10.37,2013-02-14 02:06:00,
2013-02-13 21:11:00,32.2,25.8,29.93,SW,222,1.5,2.3,77,0.00,CLR,,0.02,WeatherDisplay:10.37,2013-02-14 02:11:00,
2013-02-13 21:16:00,31.8,25.7,29.93,West,267,0.0,2.3,78,0.00,CLR,,0.02,WeatherDisplay:10.37,2013-02-14 02:16:00,
2013-02-13 21:21:00,31.8,25.7,29.93,SW,222,0.0,0.0,78,0.00,CLR,,0.02,WeatherDisplay:10.37,2013-02-14 02:21:00,
2013-02-13 21:26:00,31.6,25.6,29.93,WSW,245,3.5,3.5,78,0.00,CLR,,0.02,WeatherDisplay:10.37,2013-02-14 02:26:00,
2013-02-13 21:31:00,31.6,25.6,29.93,SSW,199,1.6,3.5,78,0.00,CLR,,0.02,WeatherDisplay:10.37,2013-02-14 02:31:00,
2013-02-13 21:36:00,31.6,25.6,29.93,SSW,199,3.6,3.6,78,0.00,CLR,,0.02,WeatherDisplay:10.37,2013-02-14 02:36:00,
2013-02-13 21:41:00,31.6,25.6,29.93,SW,222,0.0,0.0,78,0.00,CLR,,0.02,WeatherDisplay:10.37,2013-02-14 02:41:00,
2013-02-13 21:46:00,31.6,25.6,29.93,WSW,245,2.0,2.3,78,0.00,CLR,,0.02,WeatherDisplay:10.37,2013-02-14 02:46:00,
2013-02-13 21:51:00,31.6,25.6,29.93,West,267,1.2,2.3,78,0.00,CLR,,0.02,WeatherDisplay:10.37,2013-02-14 02:51:00,
2013-02-13 21:56:00,31.5,25.7,29.93,West,267,3.4,3.5,79,0.00,CLR,,0.02,WeatherDisplay:10.37,2013-02-14 02:56:00,
2013-02-13 22:01:00,31.3,25.5,29.93,WSW,251,5.0,0.0,79,0.00,CLR,,0.02,WeatherDisplay:10.37,2013-02-14 03:01:00,
2013-02-13 22:06:00,31.5,25.7,29.93,SSE,155,3.1,3.5,79,0.00,CLR,,0.02,WeatherDisplay:10.37,2013-02-14 03:06:00,
2013-02-13 22:11:00,31.5,25.7,29.93,South,177,1.2,1.2,79,0.00,CLR,,0.02,WeatherDisplay:10.37,2013-02-14 03:11:00,
2013-02-13 22:16:00,31.3,25.5,29.93,SW,222,1.3,2.9,79,0.00,CLR,,0.02,WeatherDisplay:10.37,2013-02-14 03:16:00,
2013-02-13 22:21:00,31.3,25.5,29.93,SSW,199,1.6,2.3,79,0.00,CLR,,0.02,WeatherDisplay:10.37,2013-02-14 03:21:00,
2013-02-13 22:26:00,31.3,25.5,29.93,South,177,2.6,2.6,79,0.00,CLR,,0.02,WeatherDisplay:10.37,2013-02-14 03:26:00,
2013-02-13 22:31:00,31.3,25.5,29.93,SSW,199,2.0,2.3,79,0.00,CLR,,0.02,WeatherDisplay:10.37,2013-02-14 03:31:00,
2013-02-13 22:36:00,31.3,25.5,29.93,SSW,199,3.4,3.5,79,0.00,CLR,,0.02,WeatherDisplay:10.37,2013-02-14 03:36:00,
2013-02-13 22:41:00,31.3,25.8,29.93,SSW,199,3.4,3.5,80,0.00,CLR,,0.02,WeatherDisplay:10.37,2013-02-14 03:41:00,
2013-02-13 22:46:00,31.3,25.8,29.93,SW,222,2.5,2.5,80,0.00,CLR,,0.02,WeatherDisplay:10.37,2013-02-14 03:46:00,
2013-02-13 22:51:00,31.3,25.8,29.93,SSW,199,1.3,1.3,80,0.00,CLR,,0.02,WeatherDisplay:10.37,2013-02-14 03:51:00,
2013-02-13 22:56:00,31.3,25.8,29.93,SE,132,4.3,4.6,80,0.00,CLR,,0.02,WeatherDisplay:10.37,2013-02-14 03:56:00,
2013-02-13 23:01:00,31.3,25.8,29.93,South,191,3.0,0.0,80,0.00,CLR,,0.02,WeatherDisplay:10.37,2013-02-14 04:01:00,
2013-02-13 23:06:00,31.3,25.8,29.93,SSW,199,2.2,3.1,80,0.00,CLR,,0.02,WeatherDisplay:10.37,2013-02-14 04:06:00,
2013-02-13 23:11:00,31.3,25.8,29.94,SSW,199,4.6,4.6,80,0.00,CLR,,0.02,WeatherDisplay:10.37,2013-02-14 04:11:00,
2013-02-13 23:16:00,31.3,25.8,29.94,SSW,199,4.5,4.6,80,0.00,CLR,,0.02,WeatherDisplay:10.37,2013-02-14 04:16:00,
2013-02-13 23:21:00,31.3,25.8,29.94,SSW,199,5.8,5.8,80,0.00,CLR,,0.02,WeatherDisplay:10.37,2013-02-14 04:21:00,
2013-02-13 23:26:00,31.3,25.8,29.95,WSW,245,3.2,3.5,80,0.00,CLR,,0.02,WeatherDisplay:10.37,2013-02-14 04:26:00,
2013-02-13 23:31:00,31.1,25.7,29.94,SSW,199,5.6,5.8,80,0.00,CLR,,0.02,WeatherDisplay:10.37,2013-02-14 04:31:00,
2013-02-13 23:36:00,31.1,26.0,29.95,SE,132,2.2,2.3,81,0.00,CLR,,0.02,WeatherDisplay:10.37,2013-02-14 04:36:00,
2013-02-13 23:41:00,31.1,26.0,29.95,West,267,3.6,5.8,81,0.00,CLR,,0.02,WeatherDisplay:10.37,2013-02-14 04:41:00,
2013-02-13 23:46:00,31.1,26.0,29.95,WSW,245,3.1,3.5,81,0.00,CLR,,0.02,WeatherDisplay:10.37,2013-02-14 04:46:00,
2013-02-13 23:51:00,31.1,26.0,29.95,West,267,5.4,5.8,81,0.00,CLR,,0.02,WeatherDisplay:10.37,2013-02-14 04:51:00,
2013-02-13 23:56:00,31.1,26.0,29.95,SSW,199,3.5,3.8,81,0.00,CLR,,0.02,WeatherDisplay:10.37,2013-02-14 04:56:00,